sensor_id;sensor_type;location;lat;lon;timestamp;pressure;altitude;pressure_sealevel;temperature;humidity
13314;BME280;6725;48.112;11.604;2023-05-20T00:02:00;95082.09;;;13.37;100.00
13314;BME280;6725;48.112;11.604;2023-05-20T00:04:26;95077.28;;;13.41;100.00
13314;BME280;6725;48.112;11.604;2023-05-20T00:06:51;95060.16;;;13.37;100.00
13314;BME280;6725;48.112;11.604;2023-05-20T00:09:17;95056.69;;;13.33;100.00
13314;BME280;6725;48.112;11.604;2023-05-20T00:11:42;95053.09;;;13.36;100.00
13314;BME280;6725;48.112;11.604;2023-05-20T00:14:08;95041.78;;;13.34;100.00
13314;BME280;6725;48.112;11.604;2023-05-20T00:16:33;95029.25;;;13.33;100.00
13314;BME280;6725;48.112;11.604;2023-05-20T00:18:59;95024.41;;;13.24;100.00
13314;BME280;6725;48.112;11.604;2023-05-20T00:21:24;95025.16;;;13.25;100.00
13314;BME280;6725;48.112;11.604;2023-05-20T00:23:50;95021.50;;;13.32;100.00
13314;BME280;6725;48.112;11.604;2023-05-20T00:26:15;95010.94;;;13.30;100.00
13314;BME280;6725;48.112;11.604;2023-05-20T00:28:41;95009.81;;;13.11;100.00
13314;BME280;6725;48.112;11.604;2023-05-20T00:31:06;95006.13;;;13.18;100.00
13314;BME280;6725;48.112;11.604;2023-05-20T00:33:32;94988.69;;;13.12;100.00
13314;BME280;6725;48.112;11.604;2023-05-20T00:35:57;94978.56;;;13.09;100.00
13314;BME280;6725;48.112;11.604;2023-05-20T00:38:22;94962.63;;;13.20;100.00
13314;BME280;6725;48.112;11.604;2023-05-20T00:40:48;94955.66;;;13.15;100.00
13314;BME280;6725;48.112;11.604;2023-05-20T00:43:13;94946.69;;;13.15;100.00
13314;BME280;6725;48.112;11.604;2023-05-20T00:45:38;94937.25;;;13.00;100.00
13314;BME280;6725;48.112;11.604;2023-05-20T00:48:04;94913.78;;;12.99;100.00
13314;BME280;6725;48.112;11.604;2023-05-20T00:50:30;94901.13;;;13.05;100.00
13314;BME280;6725;48.112;11.604;2023-05-20T00:52:56;94864.81;;;13.01;100.00
13314;BME280;6725;48.112;11.604;2023-05-20T00:55:23;94849.47;;;13.03;100.00
13314;BME280;6725;48.112;11.604;2023-05-20T00:57:49;94836.00;;;13.09;100.00
13314;BME280;6725;48.112;11.604;2023-05-20T01:00:15;94837.47;;;13.13;100.00
13314;BME280;6725;48.112;11.604;2023-05-20T01:02:40;94836.00;;;13.09;100.00
13314;BME280;6725;48.112;11.604;2023-05-20T01:05:06;94812.03;;;12.97;100.00
13314;BME280;6725;48.112;11.604;2023-05-20T01:07:32;94797.19;;;12.94;100.00
13314;BME280;6725;48.112;11.604;2023-05-20T01:09:58;94765.94;;;12.92;100.00
13314;BME280;6725;48.112;11.604;2023-05-20T01:12:30;94740.84;;;12.93;100.00
13314;BME280;6725;48.112;11.604;2023-05-20T01:15:06;94715.75;;;12.95;100.00
13314;BME280;6725;48.112;11.604;2023-05-20T01:17:35;94699.31;;;12.95;100.00
13314;BME280;6725;48.112;11.604;2023-05-20T01:20:03;94679.81;;;12.93;100.00
13314;BME280;6725;48.112;11.604;2023-05-20T01:22:30;94651.72;;;12.89;100.00
13314;BME280;6725;48.112;11.604;2023-05-20T01:24:55;94596.81;;;12.92;100.00
13314;BME280;6725;48.112;11.604;2023-05-20T01:27:22;94565.56;;;12.90;100.00
13314;BME280;6725;48.112;11.604;2023-05-20T01:29:49;94556.28;;;13.00;100.00
13314;BME280;6725;48.112;11.604;2023-05-20T01:32:21;94554.22;;;13.04;100.00
13314;BME280;6725;48.112;11.604;2023-05-20T01:34:51;94629.31;;;13.06;100.00
13314;BME280;6725;48.112;11.604;2023-05-20T01:37:20;94623.91;;;13.03;100.00
13314;BME280;6725;48.112;11.604;2023-05-20T01:39:48;94632.69;;;12.98;100.00
13314;BME280;6725;48.112;11.604;2023-05-20T01:42:15;94631.06;;;13.00;100.00
13314;BME280;6725;48.112;11.604;2023-05-20T01:44:41;94624.69;;;13.03;100.00
13314;BME280;6725;48.112;11.604;2023-05-20T01:47:06;94628.66;;;13.02;100.00
13314;BME280;6725;48.112;11.604;2023-05-20T01:49:31;94615.66;;;12.90;100.00
13314;BME280;6725;48.112;11.604;2023-05-20T01:51:57;94608.44;;;12.96;100.00
13314;BME280;6725;48.112;11.604;2023-05-20T01:54:23;94601.06;;;12.81;100.00
13314;BME280;6725;48.112;11.604;2023-05-20T01:56:48;94578.84;;;12.79;100.00
13314;BME280;6725;48.112;11.604;2023-05-20T01:59:14;94565.13;;;12.79;100.00
13314;BME280;6725;48.112;11.604;2023-05-20T02:01:39;94540.69;;;12.72;100.00
13314;BME280;6725;48.112;11.604;2023-05-20T02:04:05;94516.13;;;12.81;100.00
13314;BME280;6725;48.112;11.604;2023-05-20T02:06:30;94510.22;;;12.82;100.00
13314;BME280;6725;48.112;11.604;2023-05-20T02:08:55;94492.47;;;12.87;100.00
13314;BME280;6725;48.112;11.604;2023-05-20T02:11:21;94493.25;;;12.75;100.00
13314;BME280;6725;48.112;11.604;2023-05-20T02:13:46;94483.81;;;12.76;100.00
13314;BME280;6725;48.112;11.604;2023-05-20T02:16:12;94462.53;;;12.80;100.00
13314;BME280;6725;48.112;11.604;2023-05-20T02:18:37;94451.59;;;12.80;100.00
13314;BME280;6725;48.112;11.604;2023-05-20T02:21:03;94439.97;;;12.76;100.00
13314;BME280;6725;48.112;11.604;2023-05-20T02:23:32;94421.59;;;12.64;100.00
13314;BME280;6725;48.112;11.604;2023-05-20T02:25:58;94408.84;;;12.70;100.00
13314;BME280;6725;48.112;11.604;2023-05-20T02:28:23;94309.34;;;12.73;100.00
13314;BME280;6725;48.112;11.604;2023-05-20T02:30:48;94306.72;;;12.82;100.00
13314;BME280;6725;48.112;11.604;2023-05-20T02:33:17;94302.75;;;12.83;100.00
13314;BME280;6725;48.112;11.604;2023-05-20T02:35:43;94297.06;;;12.77;100.00
13314;BME280;6725;48.112;11.604;2023-05-20T02:38:11;94295.06;;;12.78;100.00
13314;BME280;6725;48.112;11.604;2023-05-20T02:40:37;94302.09;;;12.79;100.00
13314;BME280;6725;48.112;11.604;2023-05-20T02:43:03;94305.41;;;12.74;100.00
13314;BME280;6725;48.112;11.604;2023-05-20T02:45:29;94300.06;;;12.70;100.00
13314;BME280;6725;48.112;11.604;2023-05-20T02:47:54;94290.94;;;12.73;100.00
13314;BME280;6725;48.112;11.604;2023-05-20T02:50:19;94287.31;;;12.76;100.00
13314;BME280;6725;48.112;11.604;2023-05-20T02:52:45;94277.13;;;12.77;100.00
13314;BME280;6725;48.112;11.604;2023-05-20T02:55:11;94271.78;;;12.73;100.00
13314;BME280;6725;48.112;11.604;2023-05-20T02:57:37;94264.75;;;12.72;100.00
13314;BME280;6725;48.112;11.604;2023-05-20T03:00:04;94272.31;;;12.68;100.00
13314;BME280;6725;48.112;11.604;2023-05-20T03:02:31;94252.78;;;12.79;100.00
13314;BME280;6725;48.112;11.604;2023-05-20T03:04:57;94250.50;;;12.77;100.00
13314;BME280;6725;48.112;11.604;2023-05-20T03:07:22;94249.88;;;12.73;100.00
13314;BME280;6725;48.112;11.604;2023-05-20T03:09:48;94245.91;;;12.74;100.00
13314;BME280;6725;48.112;11.604;2023-05-20T03:12:13;94256.09;;;12.74;100.00
13314;BME280;6725;48.112;11.604;2023-05-20T03:14:39;94252.59;;;12.73;100.00
13314;BME280;6725;48.112;11.604;2023-05-20T03:17:04;94250.09;;;12.66;100.00
13314;BME280;6725;48.112;11.604;2023-05-20T03:19:29;94231.91;;;12.60;100.00
13314;BME280;6725;48.112;11.604;2023-05-20T03:21:55;94230.19;;;12.53;100.00
13314;BME280;6725;48.112;11.604;2023-05-20T03:24:21;94227.03;;;12.55;100.00
13314;BME280;6725;48.112;11.604;2023-05-20T03:26:47;94214.53;;;12.54;100.00
13314;BME280;6725;48.112;11.604;2023-05-20T03:29:13;94190.19;;;12.56;100.00
13314;BME280;6725;48.112;11.604;2023-05-20T03:31:38;94188.00;;;12.63;100.00
13314;BME280;6725;48.112;11.604;2023-05-20T03:34:03;94194.75;;;12.71;100.00
13314;BME280;6725;48.112;11.604;2023-05-20T03:36:29;94193.06;;;12.74;100.00
13314;BME280;6725;48.112;11.604;2023-05-20T03:38:55;94191.75;;;12.78;100.00
13314;BME280;6725;48.112;11.604;2023-05-20T03:41:20;94195.56;;;12.81;100.00
13314;BME280;6725;48.112;11.604;2023-05-20T03:43:46;94205.88;;;12.77;100.00
13314;BME280;6725;48.112;11.604;2023-05-20T03:46:11;94216.03;;;12.67;100.00
13314;BME280;6725;48.112;11.604;2023-05-20T03:48:37;94213.97;;;12.59;100.00
13314;BME280;6725;48.112;11.604;2023-05-20T03:51:02;94200.66;;;12.70;100.00
13314;BME280;6725;48.112;11.604;2023-05-20T03:53:28;94203.09;;;12.68;100.00
13314;BME280;6725;48.112;11.604;2023-05-20T03:55:53;94198.16;;;12.63;100.00
13314;BME280;6725;48.112;11.604;2023-05-20T03:58:18;94179.59;;;12.58;100.00
13314;BME280;6725;48.112;11.604;2023-05-20T04:00:45;94180.66;;;12.60;100.00
13314;BME280;6725;48.112;11.604;2023-05-20T04:03:11;94183.84;;;12.59;100.00
13314;BME280;6725;48.112;11.604;2023-05-20T04:05:37;94168.69;;;12.67;100.00
13314;BME280;6725;48.112;11.604;2023-05-20T04:08:02;94163.38;;;12.72;100.00
13314;BME280;6725;48.112;11.604;2023-05-20T04:10:29;94159.31;;;12.77;100.00
13314;BME280;6725;48.112;11.604;2023-05-20T04:12:56;94160.00;;;12.68;100.00
13314;BME280;6725;48.112;11.604;2023-05-20T04:15:22;94152.13;;;12.70;100.00
13314;BME280;6725;48.112;11.604;2023-05-20T04:17:50;94152.31;;;12.76;100.00
13314;BME280;6725;48.112;11.604;2023-05-20T04:20:16;94161.75;;;12.75;100.00
13314;BME280;6725;48.112;11.604;2023-05-20T04:22:42;94174.09;;;12.58;100.00
13314;BME280;6725;48.112;11.604;2023-05-20T04:25:08;94172.25;;;12.55;100.00
13314;BME280;6725;48.112;11.604;2023-05-20T04:27:34;94174.69;;;12.53;100.00
13314;BME280;6725;48.112;11.604;2023-05-20T04:29:59;94153.91;;;12.64;100.00
13314;BME280;6725;48.112;11.604;2023-05-20T04:32:26;94148.44;;;12.64;100.00
13314;BME280;6725;48.112;11.604;2023-05-20T04:34:52;94155.56;;;12.62;100.00
13314;BME280;6725;48.112;11.604;2023-05-20T04:37:18;94154.69;;;12.65;100.00
13314;BME280;6725;48.112;11.604;2023-05-20T04:39:44;94155.50;;;12.53;100.00
13314;BME280;6725;48.112;11.604;2023-05-20T04:42:12;94138.03;;;12.38;100.00
13314;BME280;6725;48.112;11.604;2023-05-20T04:44:37;94133.78;;;12.37;100.00
13314;BME280;6725;48.112;11.604;2023-05-20T04:47:03;94117.72;;;12.48;100.00
13314;BME280;6725;48.112;11.604;2023-05-20T04:49:32;94106.59;;;12.64;100.00
13314;BME280;6725;48.112;11.604;2023-05-20T04:51:57;94113.41;;;12.59;100.00
13314;BME280;6725;48.112;11.604;2023-05-20T04:54:23;94103.75;;;12.46;100.00
13314;BME280;6725;48.112;11.604;2023-05-20T04:56:49;94089.72;;;12.44;100.00
13314;BME280;6725;48.112;11.604;2023-05-20T04:59:15;94085.88;;;12.63;100.00
13314;BME280;6725;48.112;11.604;2023-05-20T05:01:41;94080.47;;;12.50;100.00
13314;BME280;6725;48.112;11.604;2023-05-20T05:04:06;94088.84;;;12.47;100.00
13314;BME280;6725;48.112;11.604;2023-05-20T05:06:32;94084.63;;;12.33;100.00
13314;BME280;6725;48.112;11.604;2023-05-20T05:08:57;94070.88;;;12.46;100.00
13314;BME280;6725;48.112;11.604;2023-05-20T05:11:23;94069.97;;;12.49;100.00
13314;BME280;6725;48.112;11.604;2023-05-20T05:13:48;94060.22;;;12.48;100.00
13314;BME280;6725;48.112;11.604;2023-05-20T05:16:13;94049.34;;;12.57;100.00
13314;BME280;6725;48.112;11.604;2023-05-20T05:18:39;94054.81;;;12.57;100.00
13314;BME280;6725;48.112;11.604;2023-05-20T05:21:05;94043.50;;;12.46;100.00
13314;BME280;6725;48.112;11.604;2023-05-20T05:23:31;94042.91;;;12.51;100.00
13314;BME280;6725;48.112;11.604;2023-05-20T05:25:57;94026.41;;;12.63;100.00
13314;BME280;6725;48.112;11.604;2023-05-20T05:28:22;94032.69;;;12.73;100.00
13314;BME280;6725;48.112;11.604;2023-05-20T05:30:48;94048.16;;;12.67;100.00
13314;BME280;6725;48.112;11.604;2023-05-20T05:33:14;94058.59;;;12.81;100.00
13314;BME280;6725;48.112;11.604;2023-05-20T05:35:41;94063.34;;;12.89;100.00
13314;BME280;6725;48.112;11.604;2023-05-20T05:38:06;94081.75;;;12.89;100.00
13314;BME280;6725;48.112;11.604;2023-05-20T05:40:32;94113.50;;;12.99;100.00
13314;BME280;6725;48.112;11.604;2023-05-20T05:42:57;94143.06;;;12.82;100.00
13314;BME280;6725;48.112;11.604;2023-05-20T05:45:22;94154.25;;;13.18;100.00
13314;BME280;6725;48.112;11.604;2023-05-20T05:47:48;94218.66;;;13.14;100.00
13314;BME280;6725;48.112;11.604;2023-05-20T05:50:13;94273.47;;;13.14;100.00
13314;BME280;6725;48.112;11.604;2023-05-20T05:52:38;94344.00;;;13.35;100.00
13314;BME280;6725;48.112;11.604;2023-05-20T05:55:04;94399.72;;;13.32;100.00
13314;BME280;6725;48.112;11.604;2023-05-20T05:57:30;94441.66;;;13.20;100.00
13314;BME280;6725;48.112;11.604;2023-05-20T05:59:55;94473.69;;;13.23;100.00
13314;BME280;6725;48.112;11.604;2023-05-20T06:02:21;94496.91;;;13.31;100.00
13314;BME280;6725;48.112;11.604;2023-05-20T06:04:46;94522.13;;;13.38;100.00
13314;BME280;6725;48.112;11.604;2023-05-20T06:07:12;94550.00;;;13.37;100.00
13314;BME280;6725;48.112;11.604;2023-05-20T06:09:37;94568.00;;;13.38;100.00
13314;BME280;6725;48.112;11.604;2023-05-20T06:12:03;94575.88;;;13.49;100.00
13314;BME280;6725;48.112;11.604;2023-05-20T06:14:29;94604.84;;;13.37;100.00
13314;BME280;6725;48.112;11.604;2023-05-20T06:16:54;94611.88;;;13.38;100.00
13314;BME280;6725;48.112;11.604;2023-05-20T06:19:19;94616.56;;;13.50;100.00
13314;BME280;6725;48.112;11.604;2023-05-20T06:21:45;94626.97;;;13.55;100.00
13314;BME280;6725;48.112;11.604;2023-05-20T06:24:10;94639.06;;;13.70;100.00
13314;BME280;6725;48.112;11.604;2023-05-20T06:26:35;94659.22;;;13.76;100.00
13314;BME280;6725;48.112;11.604;2023-05-20T06:29:02;94691.72;;;13.65;100.00
13314;BME280;6725;48.112;11.604;2023-05-20T06:31:27;94703.03;;;13.92;100.00
13314;BME280;6725;48.112;11.604;2023-05-20T06:33:54;94748.34;;;14.34;100.00
13314;BME280;6725;48.112;11.604;2023-05-20T06:36:19;94826.47;;;14.92;100.00
13314;BME280;6725;48.112;11.604;2023-05-20T06:38:45;94907.69;;;14.59;100.00
13314;BME280;6725;48.112;11.604;2023-05-20T06:41:10;94953.31;;;14.57;100.00
13314;BME280;6725;48.112;11.604;2023-05-20T06:43:36;94975.28;;;14.57;100.00
13314;BME280;6725;48.112;11.604;2023-05-20T06:46:01;95003.00;;;14.75;100.00
13314;BME280;6725;48.112;11.604;2023-05-20T06:48:26;95030.28;;;14.69;100.00
13314;BME280;6725;48.112;11.604;2023-05-20T06:50:52;95030.84;;;14.36;100.00
13314;BME280;6725;48.112;11.604;2023-05-20T06:53:17;95002.59;;;14.35;100.00
13314;BME280;6725;48.112;11.604;2023-05-20T06:55:42;94975.34;;;14.28;100.00
13314;BME280;6725;48.112;11.604;2023-05-20T06:58:08;94947.66;;;14.35;100.00
13314;BME280;6725;48.112;11.604;2023-05-20T07:00:33;94939.66;;;14.66;100.00
13314;BME280;6725;48.112;11.604;2023-05-20T07:02:59;94954.50;;;14.68;100.00
13314;BME280;6725;48.112;11.604;2023-05-20T07:05:24;94961.56;;;14.69;100.00
13314;BME280;6725;48.112;11.604;2023-05-20T07:07:51;94986.38;;;15.03;100.00
13314;BME280;6725;48.112;11.604;2023-05-20T07:10:17;95033.22;;;16.39;100.00
13314;BME280;6725;48.112;11.604;2023-05-20T07:12:42;95087.50;;;16.08;100.00
13314;BME280;6725;48.112;11.604;2023-05-20T07:15:08;95101.09;;;15.90;100.00
13314;BME280;6725;48.112;11.604;2023-05-20T07:17:33;95104.56;;;15.69;100.00
13314;BME280;6725;48.112;11.604;2023-05-20T07:19:59;95101.56;;;15.14;100.00
13314;BME280;6725;48.112;11.604;2023-05-20T07:22:24;95076.19;;;14.56;100.00
13314;BME280;6725;48.112;11.604;2023-05-20T07:24:50;95053.56;;;14.65;100.00
13314;BME280;6725;48.112;11.604;2023-05-20T07:27:15;95025.97;;;14.68;100.00
13314;BME280;6725;48.112;11.604;2023-05-20T07:29:40;95022.91;;;14.91;100.00
13314;BME280;6725;48.112;11.604;2023-05-20T07:32:07;95015.69;;;14.44;100.00
13314;BME280;6725;48.112;11.604;2023-05-20T07:34:33;95010.47;;;14.62;100.00
13314;BME280;6725;48.112;11.604;2023-05-20T07:36:58;94998.91;;;15.04;100.00
13314;BME280;6725;48.112;11.604;2023-05-20T07:39:23;95027.63;;;15.28;100.00
13314;BME280;6725;48.112;11.604;2023-05-20T07:41:49;95078.22;;;16.71;100.00
13314;BME280;6725;48.112;11.604;2023-05-20T07:44:15;95120.53;;;16.98;100.00
13314;BME280;6725;48.112;11.604;2023-05-20T07:46:43;95139.56;;;17.36;100.00
13314;BME280;6725;48.112;11.604;2023-05-20T07:49:09;95153.97;;;17.31;100.00
13314;BME280;6725;48.112;11.604;2023-05-20T07:51:34;95156.03;;;17.70;100.00
13314;BME280;6725;48.112;11.604;2023-05-20T07:54:00;95166.59;;;17.41;100.00
13314;BME280;6725;48.112;11.604;2023-05-20T07:56:25;95170.22;;;18.38;100.00
13314;BME280;6725;48.112;11.604;2023-05-20T07:58:55;95179.28;;;19.20;100.00
13314;BME280;6725;48.112;11.604;2023-05-20T08:01:22;95180.97;;;20.51;100.00
13314;BME280;6725;48.112;11.604;2023-05-20T08:03:48;95189.03;;;19.66;100.00
13314;BME280;6725;48.112;11.604;2023-05-20T08:06:13;95189.69;;;20.35;100.00
13314;BME280;6725;48.112;11.604;2023-05-20T08:08:38;95186.47;;;20.98;100.00
13314;BME280;6725;48.112;11.604;2023-05-20T08:11:06;95193.28;;;20.50;100.00
13314;BME280;6725;48.112;11.604;2023-05-20T08:13:31;95183.84;;;21.18;100.00
13314;BME280;6725;48.112;11.604;2023-05-20T08:15:57;95187.91;;;20.23;100.00
13314;BME280;6725;48.112;11.604;2023-05-20T08:18:22;95188.41;;;20.13;100.00
13314;BME280;6725;48.112;11.604;2023-05-20T08:20:48;95176.28;;;20.01;100.00
13314;BME280;6725;48.112;11.604;2023-05-20T08:23:13;95173.47;;;20.43;100.00
13314;BME280;6725;48.112;11.604;2023-05-20T08:25:38;95177.94;;;21.25;100.00
13314;BME280;6725;48.112;11.604;2023-05-20T08:28:04;95180.56;;;21.05;100.00
13314;BME280;6725;48.112;11.604;2023-05-20T08:30:32;95193.22;;;21.06;100.00
13314;BME280;6725;48.112;11.604;2023-05-20T08:32:58;95186.81;;;22.16;100.00
13314;BME280;6725;48.112;11.604;2023-05-20T08:35:24;95177.97;;;23.13;100.00
13314;BME280;6725;48.112;11.604;2023-05-20T08:37:50;95173.56;;;23.77;100.00
13314;BME280;6725;48.112;11.604;2023-05-20T08:40:15;95169.69;;;23.44;100.00
13314;BME280;6725;48.112;11.604;2023-05-20T08:42:42;95169.75;;;23.24;100.00
13314;BME280;6725;48.112;11.604;2023-05-20T08:45:10;95172.94;;;22.36;100.00
13314;BME280;6725;48.112;11.604;2023-05-20T08:47:40;95176.81;;;22.44;100.00
13314;BME280;6725;48.112;11.604;2023-05-20T08:50:08;95169.56;;;22.67;100.00
13314;BME280;6725;48.112;11.604;2023-05-20T08:52:36;95169.59;;;22.32;100.00
13314;BME280;6725;48.112;11.604;2023-05-20T08:55:03;95177.91;;;21.98;100.00
13314;BME280;6725;48.112;11.604;2023-05-20T08:57:32;95178.31;;;21.62;100.00
13314;BME280;6725;48.112;11.604;2023-05-20T08:59:58;95176.97;;;21.86;100.00
13314;BME280;6725;48.112;11.604;2023-05-20T09:02:24;95174.38;;;21.39;100.00
13314;BME280;6725;48.112;11.604;2023-05-20T09:04:49;95175.44;;;21.85;100.00
13314;BME280;6725;48.112;11.604;2023-05-20T09:07:26;95171.81;;;21.50;100.00
13314;BME280;6725;48.112;11.604;2023-05-20T09:09:51;95188.69;;;21.90;100.00
13314;BME280;6725;48.112;11.604;2023-05-20T09:12:16;95178.91;;;21.80;100.00
13314;BME280;6725;48.112;11.604;2023-05-20T09:14:42;95172.16;;;22.01;100.00
13314;BME280;6725;48.112;11.604;2023-05-20T09:17:09;95176.81;;;22.24;100.00
13314;BME280;6725;48.112;11.604;2023-05-20T09:19:35;95177.28;;;22.23;100.00
13314;BME280;6725;48.112;11.604;2023-05-20T09:22:02;95171.97;;;21.47;100.00
13314;BME280;6725;48.112;11.604;2023-05-20T09:24:27;95174.78;;;21.61;100.00
13314;BME280;6725;48.112;11.604;2023-05-20T09:26:53;95172.94;;;21.58;100.00
13314;BME280;6725;48.112;11.604;2023-05-20T09:29:18;95160.84;;;23.45;100.00
13314;BME280;6725;48.112;11.604;2023-05-20T09:31:45;95167.47;;;23.48;100.00
13314;BME280;6725;48.112;11.604;2023-05-20T09:34:11;95174.44;;;22.37;100.00
13314;BME280;6725;48.112;11.604;2023-05-20T09:36:38;95168.72;;;21.92;100.00
13314;BME280;6725;48.112;11.604;2023-05-20T09:39:07;95180.25;;;22.19;100.00
13314;BME280;6725;48.112;11.604;2023-05-20T09:42:04;95169.13;;;22.19;100.00
13314;BME280;6725;48.112;11.604;2023-05-20T09:44:32;95171.50;;;22.26;100.00
13314;BME280;6725;48.112;11.604;2023-05-20T09:46:59;95168.03;;;21.24;100.00
13314;BME280;6725;48.112;11.604;2023-05-20T09:49:25;95167.19;;;21.18;100.00
13314;BME280;6725;48.112;11.604;2023-05-20T09:51:53;95163.53;;;21.12;100.00
13314;BME280;6725;48.112;11.604;2023-05-20T09:54:19;95143.19;;;21.93;100.00
13314;BME280;6725;48.112;11.604;2023-05-20T09:56:46;95148.03;;;21.78;100.00
13314;BME280;6725;48.112;11.604;2023-05-20T09:59:14;95153.38;;;21.09;100.00
13314;BME280;6725;48.112;11.604;2023-05-20T10:01:41;95148.88;;;21.26;100.00
13314;BME280;6725;48.112;11.604;2023-05-20T10:04:07;95146.97;;;21.18;100.00
13314;BME280;6725;48.112;11.604;2023-05-20T10:06:59;95146.31;;;21.23;100.00
13314;BME280;6725;48.112;11.604;2023-05-20T10:09:58;95148.31;;;21.22;100.00
13314;BME280;6725;48.112;11.604;2023-05-20T10:12:39;95155.50;;;21.14;100.00
13314;BME280;6725;48.112;11.604;2023-05-20T10:18:11;95132.88;;;22.48;100.00
13314;BME280;6725;48.112;11.604;2023-05-20T10:20:47;95131.78;;;23.83;100.00
13314;BME280;6725;48.112;11.604;2023-05-20T10:23:26;95126.84;;;24.93;100.00
13314;BME280;6725;48.112;11.604;2023-05-20T10:25:52;95125.34;;;24.44;100.00
13314;BME280;6725;48.112;11.604;2023-05-20T10:28:33;95126.69;;;23.50;100.00
13314;BME280;6725;48.112;11.604;2023-05-20T10:31:00;95129.97;;;24.11;100.00
13314;BME280;6725;48.112;11.604;2023-05-20T10:33:26;95126.91;;;24.51;100.00
13314;BME280;6725;48.112;11.604;2023-05-20T10:35:59;95117.50;;;24.54;100.00
13314;BME280;6725;48.112;11.604;2023-05-20T10:38:24;95120.19;;;24.74;100.00
13314;BME280;6725;48.112;11.604;2023-05-20T10:40:51;95104.50;;;24.93;100.00
13314;BME280;6725;48.112;11.604;2023-05-20T10:43:25;95099.03;;;25.81;100.00
13314;BME280;6725;48.112;11.604;2023-05-20T10:45:54;95105.16;;;25.74;100.00
13314;BME280;6725;48.112;11.604;2023-05-20T10:48:29;95110.59;;;24.97;100.00
13314;BME280;6725;48.112;11.604;2023-05-20T10:51:00;95103.22;;;24.35;100.00
13314;BME280;6725;48.112;11.604;2023-05-20T10:53:36;95102.09;;;24.64;100.00
13314;BME280;6725;48.112;11.604;2023-05-20T10:56:02;95112.00;;;24.17;100.00
13314;BME280;6725;48.112;11.604;2023-05-20T10:58:36;95103.84;;;25.53;99.42
13314;BME280;6725;48.112;11.604;2023-05-20T11:01:01;95103.94;;;24.78;100.00
13314;BME280;6725;48.112;11.604;2023-05-20T11:03:28;95104.19;;;24.27;100.00
13314;BME280;6725;48.112;11.604;2023-05-20T11:05:54;95112.44;;;24.47;100.00
13314;BME280;6725;48.112;11.604;2023-05-20T11:08:19;95101.28;;;23.74;100.00
13314;BME280;6725;48.112;11.604;2023-05-20T11:10:44;95088.44;;;24.24;100.00
13314;BME280;6725;48.112;11.604;2023-05-20T11:13:11;95089.72;;;23.92;100.00
13314;BME280;6725;48.112;11.604;2023-05-20T11:15:37;95087.31;;;23.43;100.00
13314;BME280;6725;48.112;11.604;2023-05-20T11:18:03;95093.53;;;23.58;100.00
13314;BME280;6725;48.112;11.604;2023-05-20T11:20:29;95087.06;;;23.41;100.00
13314;BME280;6725;48.112;11.604;2023-05-20T11:22:55;95080.06;;;23.56;100.00
13314;BME280;6725;48.112;11.604;2023-05-20T11:25:21;95068.00;;;23.34;100.00
13314;BME280;6725;48.112;11.604;2023-05-20T11:27:50;95081.38;;;23.61;100.00
13314;BME280;6725;48.112;11.604;2023-05-20T11:30:16;95074.06;;;24.47;100.00
13314;BME280;6725;48.112;11.604;2023-05-20T11:32:56;95080.28;;;24.73;100.00
13314;BME280;6725;48.112;11.604;2023-05-20T11:35:23;95082.31;;;23.83;100.00
13314;BME280;6725;48.112;11.604;2023-05-20T11:38:03;95053.13;;;24.74;100.00
13314;BME280;6725;48.112;11.604;2023-05-20T11:40:30;95068.47;;;24.42;100.00
13314;BME280;6725;48.112;11.604;2023-05-20T11:42:57;95063.03;;;24.80;100.00
13314;BME280;6725;48.112;11.604;2023-05-20T11:45:23;95069.25;;;24.48;100.00
13314;BME280;6725;48.112;11.604;2023-05-20T11:48:02;95058.91;;;24.06;100.00
13314;BME280;6725;48.112;11.604;2023-05-20T11:50:32;95053.75;;;23.94;100.00
13314;BME280;6725;48.112;11.604;2023-05-20T11:52:58;95060.03;;;23.89;100.00
13314;BME280;6725;48.112;11.604;2023-05-20T11:55:24;95059.41;;;24.05;100.00
13314;BME280;6725;48.112;11.604;2023-05-20T11:57:50;95049.00;;;23.69;100.00
13314;BME280;6725;48.112;11.604;2023-05-20T12:00:16;95048.06;;;23.83;100.00
13314;BME280;6725;48.112;11.604;2023-05-20T12:02:42;95046.66;;;23.93;100.00
13314;BME280;6725;48.112;11.604;2023-05-20T12:05:08;95056.50;;;23.52;100.00
13314;BME280;6725;48.112;11.604;2023-05-20T12:07:33;95045.72;;;23.70;100.00
13314;BME280;6725;48.112;11.604;2023-05-20T12:09:58;95038.81;;;23.66;100.00
13314;BME280;6725;48.112;11.604;2023-05-20T12:12:24;95031.19;;;23.61;100.00
13314;BME280;6725;48.112;11.604;2023-05-20T12:14:49;95038.97;;;23.88;100.00
13314;BME280;6725;48.112;11.604;2023-05-20T12:17:15;95042.53;;;23.52;100.00
13314;BME280;6725;48.112;11.604;2023-05-20T12:19:40;95038.91;;;23.77;100.00
13314;BME280;6725;48.112;11.604;2023-05-20T12:22:05;95033.78;;;23.70;100.00
13314;BME280;6725;48.112;11.604;2023-05-20T12:24:31;95036.16;;;23.88;100.00
13314;BME280;6725;48.112;11.604;2023-05-20T12:26:56;95043.22;;;24.20;100.00
13314;BME280;6725;48.112;11.604;2023-05-20T12:29:22;95035.19;;;24.33;96.33
13314;BME280;6725;48.112;11.604;2023-05-20T12:31:47;95030.94;;;24.59;92.87
13314;BME280;6725;48.112;11.604;2023-05-20T12:34:13;95031.19;;;24.56;91.40
13314;BME280;6725;48.112;11.604;2023-05-20T12:36:38;95036.91;;;24.89;95.21
13314;BME280;6725;48.112;11.604;2023-05-20T12:39:03;95037.31;;;24.60;95.21
13314;BME280;6725;48.112;11.604;2023-05-20T12:41:29;95036.56;;;24.65;88.47
13314;BME280;6725;48.112;11.604;2023-05-20T12:43:54;95059.56;;;24.38;93.24
13314;BME280;6725;48.112;11.604;2023-05-20T12:46:20;95031.19;;;23.97;94.25
13314;BME280;6725;48.112;11.604;2023-05-20T12:48:45;95026.91;;;24.02;97.10
13314;BME280;6725;48.112;11.604;2023-05-20T12:51:10;95037.06;;;24.05;97.25